Munchen Bridge — 3FIZ — position and weather

sailwx.info

Track history (hours):
 
Tides and Currents Weather Stations Pressure Air Temp Water Temp Dewpoint Dewpoint Depression Visibility Wind Speed Wind Dir Waves Ship Positions

Munchen Bridge

Last reported at 2018-Jun-14 05:27 UTC. Time now 2018-Jun-25 09:38 UTC.
Position N 01°27' E 103°07'.
Warning: this ship's position is 11 days out of date.

Length 366 m; draft 14.7 m.

Type: Ship (hazmat cat D). MMSI: 373911000.

Date/timePositionNaut miles runAvg speedWind from/ knotsBaromVisibWave heightAir tempDewpointWater temp
2018-Jun-14 05:27N 01°27' E 103°07'1018.6
2018-Jun-14 04:56N 01°21' E 103°15'717.2
2018-Jun-14 04:30N 01°17' E 103°21'917.5
2018-Jun-14 03:59N 01°13' E 103°29'714.8
2018-Jun-14 03:30N 01°12' E 103°36'5 9.6
2018-Jun-14 03:00N 01°13' E 103°41'5 9.7
2018-Jun-14 02:29N 01°16' E 103°45'2 3.9
2018-Jun-14 02:00N 01°16' E 103°47'0 0.7
2018-Jun-14 01:28N 01°16' E 103°47'0 0.0
2018-Jun-14 00:59N 01°16' E 103°47'0 0.0
2018-Jun-14 00:28N 01°16' E 103°47'0 0.0
2018-Jun-13 23:59N 01°16' E 103°47'0 0.0
2018-Jun-13 23:29N 01°16' E 103°47'0 0.1
2018-Jun-13 22:58N 01°16' E 103°47'0 0.0
2018-Jun-13 22:29N 01°16' E 103°47'0 0.1
2018-Jun-13 21:58N 01°16' E 103°47'0 0.1
2018-Jun-13 21:28N 01°16' E 103°47'0 0.0
2018-Jun-13 20:58N 01°16' E 103°47'0 0.1
2018-Jun-13 20:28N 01°16' E 103°47'0 0.1
2018-Jun-13 19:58N 01°16' E 103°47'0 0.0
2018-Jun-13 19:28N 01°16' E 103°47'0 0.1
2018-Jun-13 18:58N 01°16' E 103°47'0 0.0
2018-Jun-13 18:28N 01°16' E 103°47'0 0.0
2018-Jun-13 17:58N 01°16' E 103°47'0 0.0
2018-Jun-13 17:29N 01°16' E 103°47'0 0.0
2018-Jun-13 16:59N 01°16' E 103°47'0 0.0
2018-Jun-13 16:26N 01°16' E 103°47'0 0.0
2018-Jun-13 15:56N 01°16' E 103°47'0 0.0
2018-Jun-13 15:25N 01°16' E 103°47'0 0.0
2018-Jun-13 14:58N 01°16' E 103°47'0 0.0
2018-Jun-13 14:26N 01°16' E 103°47'0 0.0
2018-Jun-13 13:44N 01°16' E 103°47'0 0.2
2018-Jun-13 13:28N 01°16' E 103°47'0 0.0
2018-Jun-13 12:56N 01°16' E 103°47'0 0.1
2018-Jun-13 12:28N 01°16' E 103°47'0 0.1
2018-Jun-13 11:58N 01°16' E 103°47'0 0.1
2018-Jun-13 11:28N 01°16' E 103°47'0 0.0
2018-Jun-13 10:59N 01°16' E 103°47'0 0.0
2018-Jun-13 10:28N 01°16' E 103°47'0 0.0
2018-Jun-13 09:58N 01°16' E 103°47'0 0.1
2018-Jun-13 09:28N 01°16' E 103°47'0 0.0
2018-Jun-13 08:59N 01°16' E 103°47'0 0.1
2018-Jun-13 08:26N 01°16' E 103°47'0 0.0
2018-Jun-13 07:56N 01°16' E 103°47'0 0.0
2018-Jun-13 07:30N 01°16' E 103°47'0 0.6
2018-Jun-13 07:00N 01°16' E 103°47'2 4.2
2018-Jun-13 06:30N 01°14' E 103°47'4 8.3
2018-Jun-13 05:59N 01°12' E 103°51'4 8.1
2018-Jun-13 05:31N 01°14' E 103°55'3 6.6
2018-Jun-13 05:00N 01°15' E 103°58'3 6.9
2018-Jun-13 04:30N 01°16' E 104°01'4 8.1
2018-Jun-13 04:00N 01°16' E 104°05'5 9.9
2018-Jun-13 03:30N 01°17' E 104°10'5 9.2
2018-Jun-13 03:00N 01°18' E 104°15'510.2
2018-Jun-13 02:30N 01°19' E 104°20'510.3
2018-Jun-13 02:00N 01°22' E 104°24'510.7
2018-Jun-13 01:29N 01°26' E 104°28'4 7.9
2018-Jun-13 01:00N 01°28' E 104°31'915.6
2018-Jun-13 00:26N 01°35' E 104°37'2719.5
2018-Jun-12 23:03N 02°00' E 104°46'620.9
2018-Jun-12 22:46N 02°06' E 104°47'2319.6
2018-Jun-12 21:35N 02°28' E 104°55'2819.7
2018-Jun-12 20:09N 02°55' E 105°03'  
2018-Jun-07 18:20N 22°22' E 119°21'716.1
2018-Jun-07 17:55N 22°23' E 119°28'716.1
2018-Jun-07 17:30N 22°25' E 119°35'816.2
2018-Jun-07 17:00N 22°27' E 119°43'816.0
2018-Jun-07 16:30N 22°29' E 119°52'815.6
2018-Jun-07 16:00N 22°30' E 119°60'815.4
2018-Jun-07 15:30N 22°32' E 120°08'713.1
2018-Jun-07 15:00N 22°33' E 120°15'4 8.0
2018-Jun-07 14:30N 22°33' E 120°19'0 0.6
2018-Jun-07 13:47N 22°33' E 120°20'0 0.0
2018-Jun-07 10:53N 22°33' E 120°20'0 0.0
2018-Jun-07 10:29N 22°33' E 120°20'0 0.0
2018-Jun-07 09:59N 22°33' E 120°20'0 0.0
2018-Jun-07 09:23N 22°33' E 120°20'0 0.0
2018-Jun-07 07:23N 22°33' E 120°20'0 0.0
2018-Jun-07 06:17N 22°33' E 120°20'0 0.0
2018-Jun-07 05:17N 22°33' E 120°20'0 0.0
2018-Jun-07 04:41N 22°33' E 120°20'0 0.0
2018-Jun-07 04:29N 22°33' E 120°20'0 0.0
2018-Jun-07 03:59N 22°33' E 120°20'0 0.0
2018-Jun-07 03:29N 22°33' E 120°20'0 0.0
2018-Jun-07 02:59N 22°33' E 120°20'0 0.0
2018-Jun-07 02:23N 22°33' E 120°20'0 0.0
2018-Jun-07 01:53N 22°33' E 120°20'0 0.0
2018-Jun-07 01:29N 22°33' E 120°20'0 0.1
2018-Jun-07 01:00N 22°33' E 120°20'2 4.3
2018-Jun-07 00:30N 22°33' E 120°17'4 8.0
2018-Jun-07 00:00N 22°31' E 120°13'2 3.6
2018-Jun-06 23:30N 22°31' E 120°11'3 4.9
2018-Jun-06 23:00N 22°33' E 120°11'4 8.9
2018-Jun-06 22:30N 22°37' E 120°09'3 5.4
2018-Jun-06 22:00N 22°39' E 120°07'611.2
2018-Jun-06 21:30N 22°43' E 120°02'510.7
2018-Jun-06 21:00N 22°47' E 119°58'611.2
2018-Jun-06 20:30N 22°51' E 119°55'47914.8
2018-Jun-05 12:11N 30°22' E 122°54'816.7
2018-Jun-05 11:42N 30°27' E 122°46'316.8
2018-Jun-05 11:30N 30°28' E 122°43'1017.5
2018-Jun-05 10:54N 30°30' E 122°31'715.7
2018-Jun-05 10:28N 30°32' E 122°23'612.4
2018-Jun-05 10:01N 30°33' E 122°17'816.4
2018-Jun-05 09:31N 30°35' E 122°07'4 0.2
2018-Jun-04 11:43N 30°37' E 122°04'0 0.9
2018-Jun-04 11:29N 30°37' E 122°04'1 1.3
2018-Jun-04 10:59N 30°37' E 122°04'3 6.5
2018-Jun-04 10:30N 30°35' E 122°07'612.9
2018-Jun-04 10:01N 30°33' E 122°14'510.3
2018-Jun-04 09:30N 30°33' E 122°20'  
Track history (hours):
 
Tides and Currents Weather Stations Pressure Air Temp Water Temp Dewpoint Dewpoint Depression Visibility Wind Speed Wind Dir Waves Ship Positions

Munchen Bridge

Last reported at 2018-Jun-14 05:27 UTC. Time now 2018-Jun-25 09:38 UTC.
Position N 01°27' E 103°07'.
Warning: this ship's position is 11 days out of date.

Length 366 m; draft 14.7 m.

Type: Ship (hazmat cat D). MMSI: 373911000.

Date/timePositionNaut miles runAvg speedWind from/ knotsBaromVisibWave heightAir tempDewpointWater temp
2018-Jun-14 05:27N 01°27' E 103°07'1018.6
2018-Jun-14 04:56N 01°21' E 103°15'717.2
2018-Jun-14 04:30N 01°17' E 103°21'917.5
2018-Jun-14 03:59N 01°13' E 103°29'714.8
2018-Jun-14 03:30N 01°12' E 103°36'5 9.6
2018-Jun-14 03:00N 01°13' E 103°41'5 9.7
2018-Jun-14 02:29N 01°16' E 103°45'2 3.9
2018-Jun-14 02:00N 01°16' E 103°47'0 0.7
2018-Jun-14 01:28N 01°16' E 103°47'0 0.0
2018-Jun-14 00:59N 01°16' E 103°47'0 0.0
2018-Jun-14 00:28N 01°16' E 103°47'0 0.0
2018-Jun-13 23:59N 01°16' E 103°47'0 0.0
2018-Jun-13 23:29N 01°16' E 103°47'0 0.1
2018-Jun-13 22:58N 01°16' E 103°47'0 0.0
2018-Jun-13 22:29N 01°16' E 103°47'0 0.1
2018-Jun-13 21:58N 01°16' E 103°47'0 0.1
2018-Jun-13 21:28N 01°16' E 103°47'0 0.0
2018-Jun-13 20:58N 01°16' E 103°47'0 0.1
2018-Jun-13 20:28N 01°16' E 103°47'0 0.1
2018-Jun-13 19:58N 01°16' E 103°47'0 0.0
2018-Jun-13 19:28N 01°16' E 103°47'0 0.1
2018-Jun-13 18:58N 01°16' E 103°47'0 0.0
2018-Jun-13 18:28N 01°16' E 103°47'0 0.0
2018-Jun-13 17:58N 01°16' E 103°47'0 0.0
2018-Jun-13 17:29N 01°16' E 103°47'0 0.0
2018-Jun-13 16:59N 01°16' E 103°47'0 0.0
2018-Jun-13 16:26N 01°16' E 103°47'0 0.0
2018-Jun-13 15:56N 01°16' E 103°47'0 0.0
2018-Jun-13 15:25N 01°16' E 103°47'0 0.0
2018-Jun-13 14:58N 01°16' E 103°47'0 0.0
2018-Jun-13 14:26N 01°16' E 103°47'0 0.0
2018-Jun-13 13:44N 01°16' E 103°47'0 0.2
2018-Jun-13 13:28N 01°16' E 103°47'0 0.0
2018-Jun-13 12:56N 01°16' E 103°47'0 0.1
2018-Jun-13 12:28N 01°16' E 103°47'0 0.1
2018-Jun-13 11:58N 01°16' E 103°47'0 0.1
2018-Jun-13 11:28N 01°16' E 103°47'0 0.0
2018-Jun-13 10:59N 01°16' E 103°47'0 0.0
2018-Jun-13 10:28N 01°16' E 103°47'0 0.0
2018-Jun-13 09:58N 01°16' E 103°47'0 0.1
2018-Jun-13 09:28N 01°16' E 103°47'0 0.0
2018-Jun-13 08:59N 01°16' E 103°47'0 0.1
2018-Jun-13 08:26N 01°16' E 103°47'0 0.0
2018-Jun-13 07:56N 01°16' E 103°47'0 0.0
2018-Jun-13 07:30N 01°16' E 103°47'0 0.6
2018-Jun-13 07:00N 01°16' E 103°47'2 4.2
2018-Jun-13 06:30N 01°14' E 103°47'4 8.3
2018-Jun-13 05:59N 01°12' E 103°51'4 8.1
2018-Jun-13 05:31N 01°14' E 103°55'3 6.6
2018-Jun-13 05:00N 01°15' E 103°58'3 6.9
2018-Jun-13 04:30N 01°16' E 104°01'4 8.1
2018-Jun-13 04:00N 01°16' E 104°05'5 9.9
2018-Jun-13 03:30N 01°17' E 104°10'5 9.2
2018-Jun-13 03:00N 01°18' E 104°15'510.2
2018-Jun-13 02:30N 01°19' E 104°20'510.3
2018-Jun-13 02:00N 01°22' E 104°24'510.7
2018-Jun-13 01:29N 01°26' E 104°28'4 7.9
2018-Jun-13 01:00N 01°28' E 104°31'915.6
2018-Jun-13 00:26N 01°35' E 104°37'2719.5
2018-Jun-12 23:03N 02°00' E 104°46'620.9
2018-Jun-12 22:46N 02°06' E 104°47'2319.6
2018-Jun-12 21:35N 02°28' E 104°55'2819.7
2018-Jun-12 20:09N 02°55' E 105°03'  
2018-Jun-07 18:20N 22°22' E 119°21'716.1
2018-Jun-07 17:55N 22°23' E 119°28'716.1
2018-Jun-07 17:30N 22°25' E 119°35'816.2
2018-Jun-07 17:00N 22°27' E 119°43'816.0
2018-Jun-07 16:30N 22°29' E 119°52'815.6
2018-Jun-07 16:00N 22°30' E 119°60'815.4
2018-Jun-07 15:30N 22°32' E 120°08'713.1
2018-Jun-07 15:00N 22°33' E 120°15'4 8.0
2018-Jun-07 14:30N 22°33' E 120°19'0 0.6
2018-Jun-07 13:47N 22°33' E 120°20'0 0.0
2018-Jun-07 10:53N 22°33' E 120°20'0 0.0
2018-Jun-07 10:29N 22°33' E 120°20'0 0.0
2018-Jun-07 09:59N 22°33' E 120°20'0 0.0
2018-Jun-07 09:23N 22°33' E 120°20'0 0.0
2018-Jun-07 07:23N 22°33' E 120°20'0 0.0
2018-Jun-07 06:17N 22°33' E 120°20'0 0.0
2018-Jun-07 05:17N 22°33' E 120°20'0 0.0
2018-Jun-07 04:41N 22°33' E 120°20'0 0.0
2018-Jun-07 04:29N 22°33' E 120°20'0 0.0
2018-Jun-07 03:59N 22°33' E 120°20'0 0.0
2018-Jun-07 03:29N 22°33' E 120°20'0 0.0
2018-Jun-07 02:59N 22°33' E 120°20'0 0.0
2018-Jun-07 02:23N 22°33' E 120°20'0 0.0
2018-Jun-07 01:53N 22°33' E 120°20'0 0.0
2018-Jun-07 01:29N 22°33' E 120°20'0 0.1
2018-Jun-07 01:00N 22°33' E 120°20'2 4.3
2018-Jun-07 00:30N 22°33' E 120°17'4 8.0
2018-Jun-07 00:00N 22°31' E 120°13'2 3.6
2018-Jun-06 23:30N 22°31' E 120°11'3 4.9
2018-Jun-06 23:00N 22°33' E 120°11'4 8.9
2018-Jun-06 22:30N 22°37' E 120°09'3 5.4
2018-Jun-06 22:00N 22°39' E 120°07'611.2
2018-Jun-06 21:30N 22°43' E 120°02'510.7
2018-Jun-06 21:00N 22°47' E 119°58'611.2
2018-Jun-06 20:30N 22°51' E 119°55'47914.8
2018-Jun-05 12:11N 30°22' E 122°54'816.7
2018-Jun-05 11:42N 30°27' E 122°46'316.8
2018-Jun-05 11:30N 30°28' E 122°43'1017.5
2018-Jun-05 10:54N 30°30' E 122°31'715.7
2018-Jun-05 10:28N 30°32' E 122°23'612.4
2018-Jun-05 10:01N 30°33' E 122°17'816.4
2018-Jun-05 09:31N 30°35' E 122°07'4 0.2
2018-Jun-04 11:43N 30°37' E 122°04'0 0.9
2018-Jun-04 11:29N 30°37' E 122°04'1 1.3
2018-Jun-04 10:59N 30°37' E 122°04'3 6.5
2018-Jun-04 10:30N 30°35' E 122°07'612.9
2018-Jun-04 10:01N 30°33' E 122°14'510.3
2018-Jun-04 09:30N 30°33' E 122°20'  

Dump ship's entire track history